Time;durP1;ratioP1;P1;durP2;ratioP2;P2;SDS_P1;SDS_P2;PMS_P1;PMS_P2;Temp;Humidity;BMP_temperature;BMP_pressure;BME280_temperature;BME280_humidity;BME280_pressure;Samples;Min_cycle;Max_cycle;Signal;HPM_P1;HPM_P2
2022/12/24 00:01:29;;;;;;;12.50;6.63;;;6.90;99.90;;;;;;4965538;28;20217;-68
2022/12/24 00:03:55;;;;;;;13.40;6.23;;;6.90;99.90;;;;;;4963482;28;20226;-69
2022/12/24 00:06:23;;;;;;;11.30;6.00;;;6.80;99.90;;;;;;4978709;28;20199;-69
2022/12/24 00:08:52;;;;;;;9.40;5.50;;;6.80;99.90;;;;;;4966616;28;23220;-69
2022/12/24 00:11:20;;;;;;;9.27;5.57;;;6.80;99.90;;;;;;4970886;28;20695;-69
2022/12/24 00:13:47;;;;;;;9.80;5.57;;;6.70;99.90;;;;;;4951584;28;20838;-69
2022/12/24 00:16:14;;;;;;;7.43;5.50;;;6.70;99.90;;;;;;4968874;28;20841;-69
2022/12/24 00:18:40;;;;;;;11.93;6.40;;;6.80;99.90;;;;;;4973299;28;20235;-69
2022/12/24 00:21:07;;;;;;;9.43;5.10;;;6.80;99.90;;;;;;4972575;28;20229;-69
2022/12/24 00:23:34;;;;;;;9.83;6.00;;;6.80;99.90;;;;;;4975688;28;20199;-69
2022/12/24 00:26:02;;;;;;;14.33;5.83;;;6.70;99.90;;;;;;4958322;28;20210;-69
2022/12/24 00:28:29;;;;;;;10.43;5.90;;;6.70;99.90;;;;;;4954635;28;20218;-68
2022/12/24 00:30:56;;;;;;;10.33;5.33;;;6.70;99.90;;;;;;4967836;28;20207;-69
2022/12/24 00:33:22;;;;;;;8.83;5.40;;;6.60;99.90;;;;;;4983659;28;20211;-69
2022/12/24 00:35:51;;;;;;;12.70;6.07;;;6.70;99.90;;;;;;4958943;28;20203;-69
2022/12/24 00:38:18;;;;;;;10.30;5.57;;;6.70;99.90;;;;;;4981625;28;20237;-69
2022/12/24 00:40:45;;;;;;;8.07;5.40;;;6.70;99.90;;;;;;4968746;28;20217;-69
2022/12/24 00:43:13;;;;;;;9.87;5.40;;;6.70;99.90;;;;;;4943379;28;20693;-69
2022/12/24 00:45:40;;;;;;;7.73;4.93;;;6.70;99.90;;;;;;4973109;28;20206;-69
2022/12/24 00:48:07;;;;;;;10.20;6.00;;;6.60;99.90;;;;;;4965680;28;20234;-69
2022/12/24 00:50:33;;;;;;;11.03;6.03;;;6.60;99.90;;;;;;4963594;28;20206;-69
2022/12/24 00:53:00;;;;;;;8.57;4.93;;;6.60;99.90;;;;;;4974547;28;20260;-69
2022/12/24 00:55:27;;;;;;;10.47;5.87;;;6.70;99.90;;;;;;4978429;28;20210;-69
2022/12/24 00:57:54;;;;;;;7.80;4.93;;;6.70;99.90;;;;;;4941163;28;20207;-69
2022/12/24 01:00:22;;;;;;;10.27;5.17;;;6.70;99.90;;;;;;4981515;28;20199;-69
2022/12/24 01:02:49;;;;;;;9.23;5.50;;;6.70;99.90;;;;;;4962750;28;20222;-69
2022/12/24 01:05:19;;;;;;;7.07;4.67;;;6.70;99.90;;;;;;4967539;28;20206;-69
2022/12/24 01:07:46;;;;;;;12.50;5.10;;;6.70;99.90;;;;;;4973912;28;20207;-69
2022/12/24 01:10:16;;;;;;;8.53;5.13;;;6.70;99.90;;;;;;4980006;28;20207;-68
2022/12/24 01:12:43;;;;;;;6.90;4.93;;;6.70;99.90;;;;;;4940799;28;21697;-69
2022/12/24 01:15:11;;;;;;;12.17;5.33;;;6.70;99.90;;;;;;4977963;28;20203;-69
2022/12/24 01:17:40;;;;;;;7.40;5.03;;;6.70;99.90;;;;;;4977857;28;20710;-69
2022/12/24 01:20:09;;;;;;;9.83;5.63;;;6.80;99.90;;;;;;4961344;28;21029;-69
2022/12/24 01:22:36;;;;;;;8.10;5.33;;;6.70;99.90;;;;;;4979200;28;20662;-69
2022/12/24 01:25:03;;;;;;;11.20;5.30;;;6.60;99.90;;;;;;4968714;28;20653;-69
2022/12/24 01:27:32;;;;;;;9.20;5.40;;;6.70;99.90;;;;;;4971625;28;20208;-69
2022/12/24 01:29:58;;;;;;;9.87;5.00;;;6.80;99.90;;;;;;4959981;28;20223;-69
2022/12/24 01:32:25;;;;;;;7.70;4.73;;;6.60;99.90;;;;;;4983076;28;20664;-69
2022/12/24 01:34:53;;;;;;;11.07;4.80;;;6.70;99.90;;;;;;4963409;28;20199;-69
2022/12/24 01:37:20;;;;;;;7.40;4.87;;;6.60;99.90;;;;;;4968205;28;20222;-69
2022/12/24 01:39:47;;;;;;;10.73;5.00;;;6.70;99.90;;;;;;4965041;28;20231;-69
2022/12/24 01:45:41;;;;;;;7.80;4.67;;;6.60;99.90;;;;;;4954632;28;20222;-69
2022/12/24 01:48:15;;;;;;;8.23;5.07;;;6.70;99.90;;;;;;4979720;28;20234;-69
2022/12/24 01:50:44;;;;;;;8.87;4.30;;;6.60;99.90;;;;;;4967705;28;20210;-69
2022/12/24 01:53:13;;;;;;;8.73;5.33;;;6.70;99.90;;;;;;4965970;28;23168;-69
2022/12/24 01:55:40;;;;;;;6.90;4.27;;;6.60;99.90;;;;;;4978876;28;20203;-69
2022/12/24 01:58:09;;;;;;;8.80;4.90;;;6.60;99.90;;;;;;4971953;28;20202;-69
2022/12/24 02:00:36;;;;;;;8.17;4.97;;;6.60;99.90;;;;;;4955686;28;20293;-69
2022/12/24 02:03:03;;;;;;;7.33;4.60;;;6.70;99.90;;;;;;4983725;28;20199;-69
2022/12/24 02:05:34;;;;;;;7.17;4.77;;;6.60;99.90;;;;;;4967215;28;20207;-69
2022/12/24 02:08:05;;;;;;;8.37;5.63;;;6.60;99.90;;;;;;4964776;28;20206;-69
2022/12/24 02:10:32;;;;;;;8.27;4.33;;;6.70;99.90;;;;;;4973772;28;20220;-69
2022/12/24 02:13:00;;;;;;;8.00;5.00;;;6.60;99.90;;;;;;4976190;28;20206;-69
2022/12/24 02:15:28;;;;;;;9.47;4.40;;;6.60;99.90;;;;;;4946965;28;20217;-69
2022/12/24 02:18:02;;;;;;;8.00;4.60;;;6.60;99.90;;;;;;4979945;28;20209;-69
2022/12/24 02:21:03;;;;;;;6.77;4.47;;;6.60;99.90;;;;;;4979934;28;20241;-69
2022/12/24 02:24:05;;;;;;;10.03;4.87;;;6.70;99.90;;;;;;4961888;28;20213;-69
2022/12/24 02:26:56;;;;;;;9.03;4.90;;;6.60;99.90;;;;;;4955284;28;20199;-69
2022/12/24 02:29:48;;;;;;;7.57;4.33;;;6.50;99.90;;;;;;4960151;28;20233;-69
2022/12/24 02:32:22;;;;;;;7.70;4.87;;;6.60;99.90;;;;;;4951000;28;20223;-69
2022/12/24 02:34:55;;;;;;;7.20;4.13;;;6.60;99.90;;;;;;4981389;28;20210;-69
2022/12/24 02:37:26;;;;;;;7.03;4.50;;;6.60;99.90;;;;;;4959255;28;20209;-69
2022/12/24 02:39:57;;;;;;;7.20;4.33;;;6.60;99.90;;;;;;4973388;28;20238;-69
2022/12/24 02:42:29;;;;;;;8.80;4.17;;;6.60;99.90;;;;;;4960966;28;20221;-69
2022/12/24 02:45:02;;;;;;;7.97;3.93;;;6.60;99.90;;;;;;4964633;28;20216;-69
2022/12/24 02:47:30;;;;;;;7.07;4.03;;;6.60;99.90;;;;;;4954452;28;20211;-69
2022/12/24 02:49:56;;;;;;;4.93;3.67;;;6.60;99.90;;;;;;4982245;28;20233;-69
2022/12/24 02:52:31;;;;;;;5.87;3.37;;;6.60;99.90;;;;;;4977596;28;20627;-69
2022/12/24 02:55:03;;;;;;;5.90;4.00;;;6.60;99.90;;;;;;4962099;28;20209;-69
2022/12/24 02:57:43;;;;;;;5.17;3.93;;;6.50;99.90;;;;;;4967200;28;21558;-69
2022/12/24 03:00:16;;;;;;;7.00;4.00;;;6.50;99.90;;;;;;4954424;28;20252;-69
2022/12/24 03:02:54;;;;;;;8.13;3.83;;;6.50;99.90;;;;;;4954901;28;21573;-69
2022/12/24 03:05:30;;;;;;;6.03;3.70;;;6.50;99.90;;;;;;4969496;28;20434;-69
2022/12/24 03:08:02;;;;;;;7.07;4.03;;;6.50;99.90;;;;;;4973288;28;20203;-69
2022/12/24 03:10:35;;;;;;;5.00;3.20;;;6.60;99.90;;;;;;4969408;28;20199;-69
2022/12/24 03:13:08;;;;;;;6.53;3.73;;;6.50;99.90;;;;;;4972478;28;20217;-69
2022/12/24 03:15:38;;;;;;;5.17;3.47;;;6.50;99.90;;;;;;4958671;28;21240;-69
2022/12/24 03:18:06;;;;;;;4.83;3.40;;;6.50;99.90;;;;;;4943159;28;20721;-69
2022/12/24 03:20:36;;;;;;;4.97;3.27;;;6.60;99.90;;;;;;4976242;28;20234;-69
2022/12/24 03:23:04;;;;;;;7.27;3.40;;;6.50;99.90;;;;;;4981441;28;20206;-69
2022/12/24 03:25:33;;;;;;;4.77;3.33;;;6.60;99.90;;;;;;4962557;28;21109;-69
2022/12/24 03:28:02;;;;;;;5.73;2.93;;;6.70;99.90;;;;;;4977339;28;20230;-69
2022/12/24 03:30:29;;;;;;;4.23;3.20;;;6.60;99.90;;;;;;4963977;28;20211;-69
2022/12/24 03:32:58;;;;;;;5.13;3.43;;;6.60;99.90;;;;;;4944518;28;20214;-69
2022/12/24 03:35:25;;;;;;;3.90;2.97;;;6.60;99.90;;;;;;4978831;28;20200;-69
2022/12/24 03:37:52;;;;;;;3.60;2.97;;;6.60;99.90;;;;;;4966518;28;20266;-69
2022/12/24 03:40:19;;;;;;;5.40;3.50;;;6.60;99.90;;;;;;4961715;28;20234;-69
2022/12/24 03:42:45;;;;;;;4.47;3.07;;;6.60;99.90;;;;;;4973552;28;20238;-69
2022/12/24 03:45:12;;;;;;;4.50;3.50;;;6.60;99.90;;;;;;4963259;28;20222;-69
2022/12/24 03:47:39;;;;;;;4.43;2.90;;;6.60;99.90;;;;;;4977313;28;20203;-69
2022/12/24 03:50:08;;;;;;;3.20;2.53;;;6.60;99.90;;;;;;4930633;28;21432;-69
2022/12/24 03:52:35;;;;;;;3.17;2.53;;;6.60;99.90;;;;;;4965402;28;20210;-68
2022/12/24 03:55:02;;;;;;;5.10;3.00;;;6.50;99.90;;;;;;4951405;28;20238;-69
2022/12/24 03:57:28;;;;;;;4.90;2.97;;;6.60;99.90;;;;;;4945039;28;20208;-69
2022/12/24 03:59:55;;;;;;;3.40;2.60;;;6.60;99.90;;;;;;4949013;28;20227;-69
2022/12/24 04:02:22;;;;;;;4.47;2.87;;;6.60;99.90;;;;;;4964429;28;20213;-69
2022/12/24 04:04:49;;;;;;;6.83;2.87;;;6.60;99.90;;;;;;4927732;28;20238;-69
2022/12/24 04:07:17;;;;;;;3.73;2.77;;;6.60;99.90;;;;;;4943743;28;20206;-69
2022/12/24 04:09:43;;;;;;;3.33;2.67;;;6.60;99.90;;;;;;4951010;28;20223;-69
2022/12/24 04:12:10;;;;;;;4.13;2.93;;;6.60;99.90;;;;;;4950760;28;20215;-69
2022/12/24 04:14:37;;;;;;;3.77;2.87;;;6.60;99.90;;;;;;4962365;28;20196;-69
2022/12/24 04:17:04;;;;;;;4.70;3.17;;;6.60;99.90;;;;;;4941857;28;20219;-69
2022/12/24 04:19:31;;;;;;;5.60;3.13;;;6.60;99.90;;;;;;4929550;28;20224;-69
2022/12/24 04:21:57;;;;;;;3.80;2.87;;;6.60;99.90;;;;;;4963460;28;20195;-69
2022/12/24 04:24:26;;;;;;;5.03;2.67;;;6.60;99.90;;;;;;4960801;28;20218;-69
2022/12/24 04:26:52;;;;;;;3.33;3.00;;;6.60;99.90;;;;;;4949441;28;20208;-69
2022/12/24 04:29:19;;;;;;;4.97;3.00;;;6.60;99.90;;;;;;4953726;28;20204;-69
2022/12/24 04:31:46;;;;;;;6.53;3.17;;;6.60;99.90;;;;;;4948215;28;20424;-69
2022/12/24 04:34:13;;;;;;;6.10;2.97;;;6.60;99.90;;;;;;4961817;28;20200;-69
2022/12/24 04:36:39;;;;;;;3.90;2.87;;;6.60;99.90;;;;;;4927226;28;20218;-69
2022/12/24 04:39:06;;;;;;;4.03;2.90;;;6.70;99.90;;;;;;4956243;28;20210;-69
2022/12/24 04:41:35;;;;;;;3.93;2.90;;;6.60;99.90;;;;;;4960348;28;20200;-69
2022/12/24 04:44:01;;;;;;;4.03;3.30;;;6.60;99.90;;;;;;4951711;28;20204;-69
2022/12/24 04:46:30;;;;;;;7.97;3.10;;;6.70;99.90;;;;;;4961100;28;20208;-69
2022/12/24 04:48:57;;;;;;;4.23;2.93;;;6.60;99.90;;;;;;4961231;28;20242;-69
2022/12/24 04:51:25;;;;;;;4.13;3.00;;;6.60;99.90;;;;;;4939053;28;20215;-69
2022/12/24 04:53:54;;;;;;;4.20;3.20;;;6.60;99.90;;;;;;4981674;28;20206;-69
2022/12/24 04:56:23;;;;;;;4.80;3.00;;;6.70;99.90;;;;;;4966315;28;20211;-69
2022/12/24 04:58:51;;;;;;;4.23;3.37;;;6.70;99.90;;;;;;4965717;28;20211;-69
2022/12/24 05:01:20;;;;;;;3.87;3.00;;;6.70;99.90;;;;;;4966610;28;20238;-69
2022/12/24 05:03:47;;;;;;;4.50;3.07;;;6.70;99.90;;;;;;4968389;28;20207;-69
2022/12/24 05:06:18;;;;;;;4.37;3.57;;;6.60;99.90;;;;;;4953352;28;20948;-69
2022/12/24 05:08:45;;;;;;;6.50;3.80;;;6.60;99.90;;;;;;4966345;28;20202;-69
2022/12/24 05:11:13;;;;;;;4.70;3.40;;;6.70;99.90;;;;;;4968801;28;20222;-69
2022/12/24 05:13:40;;;;;;;5.67;3.87;;;6.70;99.90;;;;;;4977604;28;20235;-69
2022/12/24 05:16:09;;;;;;;7.83;3.97;;;6.80;99.90;;;;;;4965829;28;20207;-68
2022/12/24 05:18:36;;;;;;;7.13;3.53;;;6.60;99.90;;;;;;4969456;28;20882;-69
2022/12/24 05:21:03;;;;;;;5.03;3.53;;;6.70;99.90;;;;;;4979152;28;20223;-69
2022/12/24 05:26:23;;;;;;;5.27;4.07;;;6.60;99.90;;;;;;4974141;28;20767;-69
2022/12/24 05:28:50;;;;;;;5.70;4.07;;;6.70;99.90;;;;;;4981588;28;20199;-69
2022/12/24 05:31:19;;;;;;;6.17;4.43;;;6.70;99.90;;;;;;4961734;28;20240;-69
2022/12/24 05:33:45;;;;;;;6.87;4.50;;;6.70;99.90;;;;;;4979621;28;20195;-69
2022/12/24 05:36:13;;;;;;;7.90;4.60;;;6.70;99.90;;;;;;4967206;28;20206;-69
2022/12/24 05:38:40;;;;;;;8.80;4.20;;;6.70;99.90;;;;;;4939500;28;20207;-69
2022/12/24 05:41:08;;;;;;;8.10;4.60;;;6.70;99.90;;;;;;4977900;28;20233;-69
2022/12/24 05:43:36;;;;;;;7.37;4.90;;;6.70;99.90;;;;;;4964682;28;20269;-69
2022/12/24 05:46:05;;;;;;;5.67;4.27;;;6.70;99.90;;;;;;4963743;28;20487;-69
2022/12/24 05:48:34;;;;;;;7.03;4.40;;;6.70;99.90;;;;;;4972506;28;20388;-69
2022/12/24 05:51:04;;;;;;;7.17;4.67;;;6.70;99.90;;;;;;4963846;28;20752;-69
2022/12/24 05:53:31;;;;;;;6.50;4.50;;;6.70;99.90;;;;;;4935047;28;20235;-69
2022/12/24 05:56:03;;;;;;;8.03;5.17;;;6.80;99.90;;;;;;4973657;28;20202;-69
2022/12/24 05:58:30;;;;;;;9.63;6.17;;;6.80;99.90;;;;;;4962000;28;20206;-69
2022/12/24 06:00:57;;;;;;;10.40;7.07;;;6.80;99.90;;;;;;4965491;28;20227;-69
2022/12/24 06:03:24;;;;;;;8.67;6.33;;;6.90;99.90;;;;;;4975843;28;20215;-69
2022/12/24 06:06:00;;;;;;;14.47;7.20;;;6.90;99.90;;;;;;4967390;28;20919;-69
2022/12/24 06:08:27;;;;;;;13.63;7.80;;;6.90;99.90;;;;;;4962423;28;20202;-69
2022/12/24 06:10:55;;;;;;;23.63;8.30;;;7.00;99.90;;;;;;4949806;28;20229;-69
2022/12/24 06:13:22;;;;;;;14.67;8.43;;;7.00;99.90;;;;;;4966295;28;20619;-69
2022/12/24 06:15:49;;;;;;;15.33;8.50;;;7.10;99.90;;;;;;4977898;28;20207;-69
2022/12/24 06:18:16;;;;;;;15.77;8.20;;;7.20;99.90;;;;;;4966976;28;20716;-69
2022/12/24 06:20:43;;;;;;;15.13;9.57;;;7.10;99.90;;;;;;4975836;28;20460;-69
2022/12/24 06:23:11;;;;;;;18.30;9.13;;;7.10;99.90;;;;;;4965370;28;20234;-69
2022/12/24 06:25:38;;;;;;;15.57;9.07;;;7.20;99.90;;;;;;4937420;28;20211;-69
2022/12/24 06:28:05;;;;;;;17.10;9.03;;;7.10;99.90;;;;;;4970375;28;20230;-69
2022/12/24 06:30:31;;;;;;;14.70;8.80;;;7.20;99.90;;;;;;4957593;28;20223;-69
2022/12/24 06:32:58;;;;;;;15.23;8.83;;;7.20;99.90;;;;;;4960751;28;20306;-69
2022/12/24 06:35:25;;;;;;;20.90;10.03;;;7.20;99.90;;;;;;4980482;28;20196;-69
2022/12/24 06:37:52;;;;;;;17.00;8.60;;;7.30;99.90;;;;;;4962090;28;20222;-69
2022/12/24 06:40:20;;;;;;;16.83;9.40;;;7.30;99.90;;;;;;4938274;28;20230;-69
2022/12/24 06:42:46;;;;;;;14.73;8.70;;;7.30;99.90;;;;;;4966566;28;20752;-69
2022/12/24 06:45:13;;;;;;;21.10;8.77;;;7.40;99.90;;;;;;4964016;28;20257;-69
2022/12/24 06:47:40;;;;;;;16.47;8.97;;;7.30;99.90;;;;;;4958484;28;20226;-68
2022/12/24 06:50:08;;;;;;;17.80;9.27;;;7.40;99.90;;;;;;4978730;28;20751;-69
2022/12/24 06:52:34;;;;;;;16.33;9.40;;;7.30;99.90;;;;;;4958808;28;20234;-69
2022/12/24 06:55:01;;;;;;;15.70;8.73;;;7.30;99.90;;;;;;4945759;28;20218;-69
2022/12/24 06:57:31;;;;;;;16.30;9.60;;;7.30;99.90;;;;;;4976648;28;20210;-69
2022/12/24 06:59:58;;;;;;;17.27;9.17;;;7.30;99.90;;;;;;4963241;28;21127;-69
2022/12/24 07:02:24;;;;;;;18.03;9.87;;;7.40;99.90;;;;;;4961361;28;20202;-69
2022/12/24 07:04:51;;;;;;;17.70;8.60;;;7.40;99.90;;;;;;4954070;28;20240;-69
2022/12/24 07:07:18;;;;;;;19.80;9.20;;;7.40;99.90;;;;;;4974088;28;20234;-69
2022/12/24 07:09:45;;;;;;;17.13;9.67;;;7.30;99.90;;;;;;4963999;28;20203;-69
2022/12/24 07:12:11;;;;;;;19.03;9.23;;;7.30;99.90;;;;;;4949873;28;20241;-69
2022/12/24 07:14:40;;;;;;;21.73;9.17;;;7.40;99.90;;;;;;4978962;28;20218;-69
2022/12/24 07:17:07;;;;;;;17.10;9.37;;;7.40;99.90;;;;;;4965137;28;20210;-69
2022/12/24 07:19:34;;;;;;;17.73;9.07;;;7.40;99.90;;;;;;4963522;28;20206;-69
2022/12/24 07:22:00;;;;;;;14.73;8.87;;;7.40;99.90;;;;;;4982755;28;20234;-69
2022/12/24 07:24:27;;;;;;;19.03;9.93;;;7.40;99.90;;;;;;4968057;28;20204;-68
2022/12/24 07:26:54;;;;;;;15.17;9.07;;;7.40;99.90;;;;;;4942574;28;20226;-69
2022/12/24 07:29:21;;;;;;;13.57;8.77;;;7.40;99.90;;;;;;4983219;28;20199;-69
2022/12/24 07:31:49;;;;;;;17.87;9.07;;;7.50;99.90;;;;;;4962803;28;20234;-69
2022/12/24 07:34:16;;;;;;;17.20;9.47;;;7.40;99.90;;;;;;4963728;28;20231;-69
2022/12/24 07:36:43;;;;;;;15.70;9.03;;;7.50;99.90;;;;;;4979040;28;20207;-69
2022/12/24 07:39:09;;;;;;;12.53;8.43;;;7.50;99.90;;;;;;4954475;28;20222;-69
2022/12/24 07:41:36;;;;;;;14.17;8.80;;;7.50;99.90;;;;;;4939543;28;20982;-69
2022/12/24 07:44:03;;;;;;;16.70;8.53;;;7.50;99.90;;;;;;4958221;28;23276;-69
2022/12/24 07:46:30;;;;;;;15.80;7.97;;;7.50;99.90;;;;;;4970601;28;20238;-69
2022/12/24 07:48:58;;;;;;;13.43;7.70;;;7.50;99.90;;;;;;4963056;28;20391;-69
2022/12/24 07:51:25;;;;;;;16.20;7.03;;;7.60;99.90;;;;;;4964750;28;20220;-69
2022/12/24 07:53:52;;;;;;;14.77;6.17;;;7.70;99.90;;;;;;4975787;28;20231;-69
2022/12/24 07:56:18;;;;;;;16.63;5.67;;;7.80;99.90;;;;;;4963014;28;20618;-69
2022/12/24 07:58:45;;;;;;;14.50;5.23;;;7.90;99.90;;;;;;4940317;28;20223;-69
2022/12/24 08:01:12;;;;;;;13.23;4.57;;;7.90;99.90;;;;;;4941824;28;20235;-69
2022/12/24 08:03:39;;;;;;;15.60;4.13;;;7.90;99.90;;;;;;4966569;28;20213;-69
2022/12/24 08:06:08;;;;;;;15.67;3.63;;;7.90;99.90;;;;;;4957348;28;20462;-69
2022/12/24 08:08:35;;;;;;;17.67;4.50;;;8.00;99.90;;;;;;4947677;28;20365;-69
2022/12/24 08:11:03;;;;;;;27.53;4.00;;;8.00;99.90;;;;;;4963714;28;20219;-69
2022/12/24 08:13:30;;;;;;;8.40;3.40;;;8.00;99.90;;;;;;4939092;28;20222;-69
2022/12/24 08:15:57;;;;;;;24.00;3.53;;;8.30;99.90;;;;;;4976201;28;20207;-69
2022/12/24 08:18:25;;;;;;;21.03;3.33;;;8.00;99.90;;;;;;4960847;28;20215;-69
2022/12/24 08:20:52;;;;;;;20.33;2.80;;;8.00;99.90;;;;;;4957009;28;20223;-69
2022/12/24 08:23:20;;;;;;;18.50;3.23;;;8.00;99.90;;;;;;4968282;28;20223;-69
2022/12/24 08:25:48;;;;;;;16.27;3.70;;;8.00;99.90;;;;;;4957802;28;21082;-69
2022/12/24 08:28:16;;;;;;;18.27;3.20;;;8.10;99.90;;;;;;4899415;28;20238;-69
2022/12/24 08:30:43;;;;;;;26.97;3.90;;;8.10;99.90;;;;;;4960494;28;20786;-69
2022/12/24 08:33:11;;;;;;;19.23;3.33;;;8.00;99.90;;;;;;4932500;28;20223;-69
2022/12/24 08:35:37;;;;;;;19.00;3.77;;;8.00;99.90;;;;;;4963551;28;20211;-69
2022/12/24 08:38:04;;;;;;;9.73;2.90;;;8.00;99.90;;;;;;4942344;28;20207;-69
2022/12/24 08:40:32;;;;;;;28.47;3.93;;;8.10;99.90;;;;;;4970755;28;20208;-69
2022/12/24 08:43:01;;;;;;;23.93;4.33;;;8.00;99.90;;;;;;4935136;28;20764;-69
2022/12/24 08:45:28;;;;;;;18.87;4.00;;;8.10;99.90;;;;;;4964245;28;20338;-69
2022/12/24 08:47:54;;;;;;;21.37;3.43;;;8.10;99.90;;;;;;4974620;28;20219;-69
2022/12/24 08:50:21;;;;;;;16.30;3.00;;;8.00;99.90;;;;;;4934819;28;20598;-69
2022/12/24 08:52:48;;;;;;;20.40;3.43;;;8.10;99.90;;;;;;4948925;28;20784;-69
2022/12/24 08:55:15;;;;;;;18.30;3.60;;;8.10;99.90;;;;;;4961057;28;21797;-68
2022/12/24 08:57:43;;;;;;;16.83;3.83;;;8.20;99.90;;;;;;4949342;28;21097;-69
2022/12/24 09:00:13;;;;;;;24.07;3.90;;;8.10;99.90;;;;;;4937310;28;20645;-69
2022/12/24 09:02:39;;;;;;;30.83;5.10;;;8.10;99.90;;;;;;4966956;28;20227;-69
2022/12/24 09:05:07;;;;;;;22.80;3.63;;;8.10;99.90;;;;;;4962141;28;20199;-69
2022/12/24 09:07:34;;;;;;;16.53;3.97;;;8.10;99.90;;;;;;4970515;28;20211;-69
2022/12/24 09:10:01;;;;;;;17.37;3.20;;;8.20;99.90;;;;;;4954062;28;20227;-70
2022/12/24 09:12:27;;;;;;;42.93;4.13;;;8.20;99.90;;;;;;4955552;28;20713;-69
2022/12/24 09:14:56;;;;;;;22.03;3.40;;;8.20;99.90;;;;;;4962066;23;20238;-69
2022/12/24 09:17:22;;;;;;;22.20;4.00;;;8.20;99.90;;;;;;4982397;28;20632;-69
2022/12/24 09:19:50;;;;;;;26.50;3.73;;;8.20;99.90;;;;;;5023151;28;20216;-69
2022/12/24 09:22:17;;;;;;;22.10;3.73;;;8.20;99.90;;;;;;5014627;28;20228;-69
2022/12/24 09:24:43;;;;;;;18.43;2.50;;;8.20;99.90;;;;;;5002541;28;20220;-70
2022/12/24 09:27:10;;;;;;;26.33;3.63;;;8.20;99.90;;;;;;5000826;28;21361;-70
2022/12/24 09:29:39;;;;;;;15.90;3.33;;;8.20;99.90;;;;;;4994318;28;20248;-69
2022/12/24 09:32:07;;;;;;;26.37;3.90;;;8.20;99.90;;;;;;5012701;28;20374;-69
2022/12/24 09:34:34;;;;;;;29.40;3.83;;;8.30;99.90;;;;;;5022164;28;20694;-69
2022/12/24 09:37:01;;;;;;;32.70;3.93;;;8.40;99.90;;;;;;5008211;28;20348;-69
2022/12/24 09:39:28;;;;;;;19.00;4.20;;;8.50;99.90;;;;;;5008720;28;20241;-69
2022/12/24 09:42:02;;;;;;;25.83;4.40;;;8.50;99.90;;;;;;5018475;28;20239;-70
2022/12/24 09:44:38;;;;;;;22.63;3.50;;;8.60;99.90;;;;;;5004055;28;20237;-70
2022/12/24 09:47:16;;;;;;;18.07;3.77;;;8.60;99.90;;;;;;4994501;28;20224;-70
2022/12/24 09:49:47;;;;;;;19.07;3.60;;;8.60;99.90;;;;;;5014024;28;20479;-70
2022/12/24 09:52:19;;;;;;;16.47;3.63;;;8.90;99.90;;;;;;5009874;28;20737;-70
2022/12/24 09:54:52;;;;;;;21.80;3.07;;;8.80;99.90;;;;;;5006583;28;20255;-70
2022/12/24 09:57:27;;;;;;;25.63;4.10;;;8.90;99.90;;;;;;4994983;28;20459;-71
2022/12/24 09:59:58;;;;;;;18.67;3.83;;;8.90;99.90;;;;;;5003814;28;20220;-70
2022/12/24 10:02:26;;;;;;;13.67;3.00;;;9.00;99.90;;;;;;5006985;28;20445;-70
2022/12/24 10:04:54;;;;;;;15.23;3.60;;;9.00;99.90;;;;;;5082670;23;20237;-70
2022/12/24 10:07:32;;;;;;;18.10;3.30;;;9.00;99.90;;;;;;4954651;28;20876;-70
2022/12/24 10:10:09;;;;;;;17.73;3.40;;;9.00;99.90;;;;;;4981346;28;20217;-70
2022/12/24 10:12:45;;;;;;;19.10;3.93;;;9.00;99.90;;;;;;4986076;28;20218;-70
2022/12/24 10:15:23;;;;;;;20.37;3.67;;;9.00;99.90;;;;;;4968143;28;20230;-71
2022/12/24 10:18:06;;;;;;;24.13;3.73;;;9.00;99.90;;;;;;4956753;28;20230;-71
2022/12/24 10:20:42;;;;;;;21.00;3.57;;;9.10;99.90;;;;;;4988957;28;20236;-70
2022/12/24 10:23:19;;;;;;;19.97;3.63;;;9.00;99.90;;;;;;4979082;28;20719;-71
2022/12/24 10:25:52;;;;;;;24.10;4.23;;;9.00;99.90;;;;;;4970735;28;20221;-70
2022/12/24 10:28:23;;;;;;;19.70;3.53;;;9.00;99.90;;;;;;4956541;28;20222;-70
2022/12/24 10:30:56;;;;;;;21.40;4.17;;;9.00;99.90;;;;;;4965749;28;20337;-71
2022/12/24 10:33:30;;;;;;;10.73;3.37;;;9.00;99.90;;;;;;4936865;28;20738;-70
2022/12/24 10:35:58;;;;;;;19.80;3.40;;;9.00;99.90;;;;;;4976770;28;20999;-70
2022/12/24 10:38:25;;;;;;;20.43;3.63;;;9.10;99.90;;;;;;4983541;28;20387;-70
2022/12/24 10:40:55;;;;;;;23.30;4.03;;;9.20;99.90;;;;;;4980617;28;20230;-70
2022/12/24 10:43:24;;;;;;;11.70;2.83;;;9.10;99.90;;;;;;4967617;28;23339;-70
2022/12/24 10:45:54;;;;;;;21.97;3.33;;;9.10;99.90;;;;;;4970704;28;22463;-70
2022/12/24 10:48:28;;;;;;;18.45;3.35;;;9.10;99.90;;;;;;4962937;28;20232;-70
2022/12/24 10:51:00;;;;;;;22.40;3.23;;;9.00;99.90;;;;;;4952838;28;21058;-70
2022/12/24 10:53:36;;;;;;;17.53;2.90;;;9.10;99.90;;;;;;4984254;28;20650;-70
2022/12/24 10:56:05;;;;;;;23.17;3.73;;;9.10;99.90;;;;;;4957962;28;20229;-70
2022/12/24 10:58:33;;;;;;;19.03;4.10;;;9.10;99.90;;;;;;4975578;28;20217;-70
2022/12/24 11:01:00;;;;;;;13.80;3.40;;;9.10;99.90;;;;;;4968759;28;20328;-70
2022/12/24 11:03:32;;;;;;;14.93;3.55;;;9.10;99.90;;;;;;4946792;28;20922;-70
2022/12/24 11:06:05;;;;;;;27.63;4.93;;;9.10;99.90;;;;;;4975006;28;20240;-70
2022/12/24 11:08:33;;;;;;;15.70;3.42;;;9.10;99.90;;;;;;4980444;28;20245;-70
2022/12/24 11:11:02;;;;;;;15.43;4.00;;;9.20;99.90;;;;;;4956353;28;20304;-70
2022/12/24 11:13:30;;;;;;;22.33;2.78;;;9.20;99.90;;;;;;4966714;28;20234;-69
2022/12/24 11:16:04;;;;;;;21.00;3.25;;;9.30;99.90;;;;;;4978687;28;20222;-70
2022/12/24 11:18:35;;;;;;;22.45;4.28;;;9.30;99.90;;;;;;4937122;28;20341;-70
2022/12/24 11:21:04;;;;;;;23.30;4.40;;;9.40;99.90;;;;;;4968840;28;20344;-70
2022/12/24 11:23:31;;;;;;;23.15;3.72;;;9.40;99.90;;;;;;4951637;28;20230;-71
2022/12/24 11:25:59;;;;;;;21.63;3.90;;;9.40;99.90;;;;;;4945495;28;20213;-70
2022/12/24 11:28:28;;;;;;;20.67;3.90;;;9.40;99.90;;;;;;4978405;28;20317;-70
2022/12/24 11:31:01;;;;;;;22.83;3.75;;;9.40;99.90;;;;;;4956286;28;20301;-70
2022/12/24 11:33:29;;;;;;;17.75;3.70;;;9.40;99.90;;;;;;4962765;28;20225;-70
2022/12/24 11:36:07;;;;;;;22.77;4.13;;;9.40;99.90;;;;;;4965752;28;20226;-70
2022/12/24 11:38:35;;;;;;;23.98;3.97;;;9.40;99.90;;;;;;4976195;28;20222;-70
2022/12/24 11:41:05;;;;;;;18.13;4.68;;;9.40;99.90;;;;;;4982608;28;20230;-70
2022/12/24 11:43:45;;;;;;;18.27;4.00;;;9.40;99.90;;;;;;4961215;28;20245;-70
2022/12/24 11:46:16;;;;;;;16.08;4.53;;;9.40;99.90;;;;;;4970538;28;20221;-70
2022/12/24 11:48:43;;;;;;;19.55;3.88;;;9.40;99.90;;;;;;4973123;28;20230;-70
2022/12/24 11:51:23;;;;;;;27.23;5.50;;;9.40;99.90;;;;;;4955194;28;20393;-70
2022/12/24 11:53:56;;;;;;;25.42;5.00;;;9.50;99.90;;;;;;4970274;28;20925;-70
2022/12/24 11:56:32;;;;;;;20.40;4.55;;;9.50;99.90;;;;;;4973025;28;20234;-70
2022/12/24 11:59:03;;;;;;;18.88;3.97;;;9.50;99.90;;;;;;4950861;28;20232;-70
2022/12/24 12:01:34;;;;;;;14.65;4.03;;;9.50;99.90;;;;;;4982407;28;20226;-70
2022/12/24 12:04:04;;;;;;;18.42;3.90;;;9.50;99.90;;;;;;4973571;28;20226;-70
2022/12/24 12:06:37;;;;;;;20.65;4.68;;;9.50;99.90;;;;;;4953519;28;20229;-70
2022/12/24 12:09:10;;;;;;;25.98;4.13;;;9.40;99.90;;;;;;4985561;28;20246;-70
2022/12/24 12:11:40;;;;;;;20.63;3.58;;;9.40;99.90;;;;;;4975537;28;20379;-70
2022/12/24 12:14:14;;;;;;;20.83;4.57;;;9.40;99.90;;;;;;4969527;28;20236;-70
2022/12/24 12:17:02;;;;;;;20.00;4.30;;;9.40;99.90;;;;;;4953434;28;20336;-70
2022/12/24 12:19:34;;;;;;;11.45;3.90;;;9.50;99.90;;;;;;4978588;28;20338;-70
2022/12/24 12:22:07;;;;;;;26.33;4.90;;;9.50;99.90;;;;;;4940775;28;20233;-70
2022/12/24 12:24:37;;;;;;;27.05;4.13;;;9.60;99.90;;;;;;4980897;28;20935;-70
2022/12/24 12:27:12;;;;;;;21.58;4.30;;;9.60;99.90;;;;;;4966840;28;20229;-70
2022/12/24 12:29:45;;;;;;;16.70;4.38;;;9.60;99.90;;;;;;4971777;28;20715;-70
2022/12/24 12:32:20;;;;;;;21.25;4.15;;;9.50;99.90;;;;;;4967588;28;21033;-70
2022/12/24 12:34:59;;;;;;;15.85;3.70;;;9.50;99.90;;;;;;4981526;28;20226;-70
2022/12/24 12:37:33;;;;;;;23.00;4.78;;;9.50;99.90;;;;;;4964636;28;20236;-70
2022/12/24 12:40:00;;;;;;;22.70;4.93;;;9.60;99.90;;;;;;4963173;28;20564;-70
2022/12/24 12:42:31;;;;;;;17.30;3.95;;;9.50;99.90;;;;;;4968053;28;20253;-70
2022/12/24 12:45:16;;;;;;;16.20;4.03;;;9.60;99.90;;;;;;4980081;28;20811;-70
2022/12/24 12:48:09;;;;;;;19.98;4.68;;;9.60;99.90;;;;;;4958886;28;20268;-70
2022/12/24 12:50:43;;;;;;;14.75;4.13;;;9.60;99.90;;;;;;4977447;28;20511;-70
2022/12/24 12:53:31;;;;;;;17.75;4.15;;;9.60;99.90;;;;;;4959237;28;20217;-70
2022/12/24 12:56:08;;;;;;;27.58;4.55;;;9.60;99.90;;;;;;4986568;28;20583;-70
2022/12/24 12:58:40;;;;;;;12.05;3.53;;;9.60;99.90;;;;;;4973396;28;20560;-70
2022/12/24 13:01:12;;;;;;;16.33;3.97;;;9.60;99.90;;;;;;4974748;28;24680;-70
2022/12/24 13:04:10;;;;;;;18.75;4.35;;;9.60;99.90;;;;;;4979388;28;20807;-69
2022/12/24 13:07:01;;;;;;;20.58;4.97;;;9.60;99.90;;;;;;4938001;28;20601;-70
2022/12/24 13:09:52;;;;;;;13.23;3.85;;;9.60;99.90;;;;;;4978317;28;20674;-70